Terminal Aerodrome Forecast
Issued by NWS

Home | Current Version | Previous Version | Text Only | Print | Product List | Glossary On
Versions: 1 2 3 4 5 6 7 8 9 10 11 12 13 14 15 16 17 18
000
FTUS43 KAPX 171130
TAFAPN
TAF
KAPN 171130Z 1712/1812 08006KT 5SM -RA BR OVC004
      TEMPO 1712/1716 2SM -FZRAPL BR
     FM171600 06009KT 3SM -RA BR OVC003
     FM171800 06009KT 5SM BR OVC003
     FM180000 02005KT 5SM BR OVC005
     FM180600 32004KT 4SM BR OVC003
     FM181000 VRB03KT 4SM BR OVC008=

USA.gov is the U.S. government's official web portal to all federal, state and local government web resources and services.